createdAt,value
2023-06-19T00:00:19.868Z,150.97
2023-06-19T00:01:09.970Z,152.62
2023-06-19T00:02:00.005Z,146.03
2023-06-19T00:02:50.179Z,149.22
2023-06-19T00:03:40.288Z,144.48
2023-06-19T00:04:30.464Z,149.30
2023-06-19T00:05:20.332Z,149.24
2023-06-19T00:06:10.399Z,152.42
2023-06-19T00:07:00.463Z,150.45
2023-06-19T00:07:50.549Z,150.48
2023-06-19T00:08:40.541Z,152.97
2023-06-19T00:09:30.600Z,154.79
2023-06-19T00:10:21.044Z,147.68
2023-06-19T00:11:10.847Z,146.15
2023-06-19T00:12:00.819Z,151.05
2023-06-19T00:12:50.898Z,145.02
2023-06-19T00:13:40.919Z,152.38
2023-06-19T00:14:30.939Z,150.72
2023-06-19T00:15:20.974Z,148.05
2023-06-19T00:16:11.167Z,149.93
2023-06-19T00:17:01.227Z,152.35
2023-06-19T00:17:51.397Z,150.43
2023-06-19T00:18:41.941Z,147.61
2023-06-19T00:19:31.392Z,158.37
2023-06-19T00:20:21.717Z,153.00
2023-06-19T00:21:11.535Z,146.44
2023-06-19T00:22:01.552Z,152.84
2023-06-19T00:22:51.682Z,158.73
2023-06-19T00:23:41.720Z,148.19
2023-06-19T00:24:31.893Z,160.24
2023-06-19T00:25:21.829Z,148.75
2023-06-19T00:26:11.906Z,153.67
2023-06-19T00:27:01.941Z,161.95
2023-06-19T00:27:52.024Z,149.69
2023-06-19T00:28:42.018Z,148.38
2023-06-19T00:29:32.090Z,152.41
2023-06-19T00:30:22.572Z,151.87
2023-06-19T00:31:12.318Z,149.33
2023-06-19T00:32:02.297Z,152.47
2023-06-19T00:32:52.379Z,153.89
2023-06-19T00:33:42.386Z,149.27
2023-06-19T00:34:32.520Z,146.18
2023-06-19T00:35:22.492Z,153.94
2023-06-19T00:36:12.665Z,147.82
2023-06-19T00:37:02.631Z,152.42
2023-06-19T00:37:52.711Z,156.22
2023-06-19T00:38:42.698Z,150.79
2023-06-19T00:39:32.856Z,151.98
2023-06-19T00:40:23.049Z,153.24
2023-06-19T00:41:12.904Z,145.84
2023-06-19T00:42:03.074Z,156.70
2023-06-19T00:42:53.153Z,147.73
2023-06-19T00:43:43.154Z,146.66
2023-06-19T00:44:33.199Z,156.54
2023-06-19T00:45:23.236Z,151.25
2023-06-19T00:46:13.421Z,151.25
2023-06-19T00:47:03.335Z,145.88
2023-06-19T00:47:53.470Z,151.64
2023-06-19T00:48:43.513Z,148.24
2023-06-19T00:49:33.647Z,147.85
2023-06-19T00:50:23.881Z,152.14
2023-06-19T00:51:13.692Z,150.25
2023-06-19T00:52:03.715Z,149.82
2023-06-19T00:52:53.841Z,147.27
2023-06-19T00:53:43.793Z,155.78
2023-06-19T00:54:33.890Z,154.72
2023-06-19T00:55:23.977Z,150.49
2023-06-19T00:56:14.033Z,149.31
2023-06-19T00:57:04.112Z,147.44
2023-06-19T00:57:54.290Z,154.44
2023-06-19T00:58:44.182Z,155.48
2023-06-19T00:59:34.338Z,149.34
2023-06-19T01:00:24.442Z,153.14
2023-06-19T01:01:14.403Z,148.72
2023-06-19T01:02:04.652Z,153.71
2023-06-19T01:02:54.835Z,150.30
2023-06-19T01:03:45.098Z,152.83
2023-06-19T01:04:34.847Z,149.51
2023-06-19T01:05:24.818Z,144.84
2023-06-19T01:06:14.926Z,145.23
2023-06-19T01:07:04.970Z,145.76
2023-06-19T01:07:55.082Z,146.54
2023-06-19T01:08:45.068Z,148.31
2023-06-19T01:09:35.241Z,148.49
2023-06-19T01:10:25.482Z,150.55
2023-06-19T01:11:26.128Z,149.06
2023-06-19T01:12:06.329Z,146.59
2023-06-19T01:12:55.419Z,149.51
2023-06-19T01:13:45.444Z,145.23
2023-06-19T01:14:35.597Z,152.59
2023-06-19T01:15:25.561Z,149.28
2023-06-19T01:16:15.783Z,154.16
2023-06-19T01:17:05.737Z,156.01
2023-06-19T01:17:56.061Z,153.24
2023-06-19T01:18:45.986Z,150.97
2023-06-19T01:19:36.117Z,152.63
2023-06-19T01:20:26.318Z,157.61
2023-06-19T01:21:16.177Z,154.92
2023-06-19T01:22:06.198Z,159.13
2023-06-19T01:22:56.342Z,151.97
2023-06-19T01:23:46.292Z,157.52
2023-06-19T01:24:36.622Z,157.55
2023-06-19T01:25:26.400Z,152.18
2023-06-19T01:26:16.510Z,151.47
2023-06-19T01:27:06.510Z,158.54
2023-06-19T01:27:56.588Z,162.27
2023-06-19T01:28:46.583Z,149.68
2023-06-19T01:29:36.727Z,154.14
2023-06-19T01:30:26.770Z,156.31
2023-06-19T01:31:16.750Z,159.64
2023-06-19T01:32:06.746Z,152.56
2023-06-19T01:32:56.958Z,153.38
2023-06-19T01:33:46.981Z,159.57
2023-06-19T01:34:40.691Z,153.26
2023-06-19T01:35:27.053Z,153.33
2023-06-19T01:36:17.194Z,145.79
2023-06-19T01:37:07.183Z,150.11
2023-06-19T01:37:57.314Z,153.51
2023-06-19T01:38:47.316Z,155.11
2023-06-19T01:39:37.385Z,150.83
2023-06-19T01:40:27.550Z,153.93
2023-06-19T01:41:17.648Z,148.90
2023-06-19T01:42:07.661Z,147.33
2023-06-19T01:42:57.720Z,149.21
2023-06-19T01:43:47.775Z,159.16
2023-06-19T01:44:37.833Z,141.74
2023-06-19T01:45:27.851Z,154.16
2023-06-19T01:46:17.996Z,150.83
2023-06-19T01:47:08.024Z,147.74
2023-06-19T01:47:58.191Z,145.18
2023-06-19T01:48:48.135Z,152.01
2023-06-19T01:49:38.278Z,151.83
2023-06-19T01:50:28.272Z,146.61
2023-06-19T01:51:18.321Z,152.73
2023-06-19T01:52:08.358Z,146.82
2023-06-19T01:52:58.504Z,148.04
2023-06-19T01:53:48.537Z,151.05
2023-06-19T01:54:38.619Z,145.89
2023-06-19T01:55:28.619Z,147.56
2023-06-19T01:56:18.674Z,144.80
2023-06-19T01:57:08.705Z,153.36
2023-06-19T01:57:58.872Z,148.64
2023-06-19T01:58:48.860Z,143.23
2023-06-19T01:59:38.977Z,145.17
2023-06-19T02:00:28.995Z,149.85
2023-06-19T02:01:19.138Z,144.22
2023-06-19T02:02:09.152Z,156.37
2023-06-19T02:02:59.427Z,152.81
2023-06-19T02:03:49.288Z,152.72
2023-06-19T02:04:39.315Z,146.59
2023-06-19T02:05:29.339Z,152.60
2023-06-19T02:06:19.470Z,144.91
2023-06-19T02:07:09.445Z,144.67
2023-06-19T02:07:59.527Z,147.83
2023-06-19T02:08:49.518Z,147.65
2023-06-19T02:09:39.648Z,150.38
2023-06-19T02:10:29.637Z,147.51
2023-06-19T02:11:19.803Z,146.62
2023-06-19T02:12:09.789Z,149.25
2023-06-19T02:12:59.872Z,149.30
2023-06-19T02:13:49.885Z,147.89
2023-06-19T02:14:40.024Z,145.60
2023-06-19T02:15:29.947Z,147.28
2023-06-19T02:16:20.142Z,151.56
2023-06-19T02:17:10.122Z,150.90
2023-06-19T02:18:00.306Z,146.09
2023-06-19T02:18:50.202Z,152.53
2023-06-19T02:19:40.333Z,156.24
2023-06-19T02:20:30.344Z,148.57
2023-06-19T02:21:20.395Z,147.28
2023-06-19T02:22:10.430Z,152.02
2023-06-19T02:23:00.563Z,146.30
2023-06-19T02:23:50.547Z,148.79
2023-06-19T02:24:40.933Z,151.40
2023-06-19T02:25:30.737Z,148.55
2023-06-19T02:26:20.826Z,159.35
2023-06-19T02:27:10.822Z,159.91
2023-06-19T02:28:00.900Z,158.24
2023-06-19T02:28:50.891Z,143.65
2023-06-19T02:29:41.028Z,152.92
2023-06-19T02:30:30.979Z,150.80
2023-06-19T02:31:21.179Z,144.30
2023-06-19T02:32:11.174Z,147.66
2023-06-19T02:33:01.353Z,147.76
2023-06-19T02:33:51.271Z,145.21
2023-06-19T02:34:41.362Z,152.89
2023-06-19T02:35:31.358Z,155.47
2023-06-19T02:36:21.406Z,146.74
2023-06-19T02:37:11.449Z,144.68
2023-06-19T02:38:01.694Z,149.15
2023-06-19T02:38:51.621Z,151.54
2023-06-19T02:39:41.705Z,156.45
2023-06-19T02:40:31.743Z,153.66
2023-06-19T02:41:21.857Z,150.46
2023-06-19T02:42:11.813Z,153.44
2023-06-19T02:43:01.931Z,152.74
2023-06-19T02:43:51.929Z,158.89
2023-06-19T02:44:42.152Z,150.96
2023-06-19T02:45:32.172Z,148.08
2023-06-19T02:46:22.246Z,149.54
2023-06-19T02:47:12.215Z,159.80
2023-06-19T02:48:02.359Z,157.23
2023-06-19T02:48:52.338Z,149.86
2023-06-19T02:49:42.502Z,148.48
2023-06-19T02:50:32.442Z,150.12
2023-06-19T02:51:22.550Z,158.38
2023-06-19T02:52:12.586Z,156.38
2023-06-19T02:53:02.714Z,143.72
2023-06-19T02:53:52.709Z,154.76
2023-06-19T02:54:42.845Z,150.65
2023-06-19T02:55:32.805Z,151.93
2023-06-19T02:56:22.937Z,145.71
2023-06-19T02:57:12.877Z,150.28
2023-06-19T02:58:03.064Z,154.41
2023-06-19T02:58:53.054Z,155.46
2023-06-19T02:59:43.186Z,145.85
2023-06-19T03:00:33.131Z,145.64
2023-06-19T03:01:23.253Z,160.12
2023-06-19T03:02:13.253Z,155.49
2023-06-19T03:03:03.478Z,147.99
2023-06-19T03:03:53.329Z,147.84
2023-06-19T03:04:43.449Z,154.33
2023-06-19T03:05:33.460Z,151.81
2023-06-19T03:06:23.570Z,153.94
2023-06-19T03:07:13.566Z,148.48
2023-06-19T03:08:03.642Z,148.59
2023-06-19T03:08:53.637Z,151.68
2023-06-19T03:09:43.766Z,157.10
2023-06-19T03:10:33.713Z,159.62
2023-06-19T03:11:23.917Z,144.07
2023-06-19T03:12:13.908Z,143.54
2023-06-19T03:13:03.986Z,150.70
2023-06-19T03:13:54.017Z,141.07
2023-06-19T03:14:44.106Z,148.44
2023-06-19T03:15:34.095Z,148.04
2023-06-19T03:16:24.179Z,152.26
2023-06-19T03:17:14.244Z,146.17
2023-06-19T03:18:04.543Z,144.81
2023-06-19T03:18:54.390Z,139.40
2023-06-19T03:19:44.553Z,144.74
2023-06-19T03:20:34.612Z,143.69
2023-06-19T03:21:24.607Z,144.12
2023-06-19T03:22:14.598Z,151.68
2023-06-19T03:23:04.699Z,142.45
2023-06-19T03:23:54.692Z,153.57
2023-06-19T03:24:44.940Z,148.91
2023-06-19T03:25:34.955Z,145.62
2023-06-19T03:26:25.054Z,144.40
2023-06-19T03:27:15.039Z,146.14
2023-06-19T03:28:05.128Z,145.08
2023-06-19T03:28:55.120Z,144.54
2023-06-19T03:29:45.242Z,150.92
2023-06-19T03:30:35.228Z,150.39
2023-06-19T03:31:25.392Z,147.60
2023-06-19T03:32:15.441Z,157.03
2023-06-19T03:33:05.595Z,140.57
2023-06-19T03:33:55.528Z,142.07
2023-06-19T03:34:45.581Z,156.95
2023-06-19T03:35:35.597Z,144.68
2023-06-19T03:36:25.757Z,141.24
2023-06-19T03:37:15.723Z,143.52
2023-06-19T03:38:05.817Z,144.30
2023-06-19T03:38:55.799Z,158.33
2023-06-19T03:39:45.924Z,147.99
2023-06-19T03:40:35.917Z,147.14
2023-06-19T03:41:26.073Z,144.43
2023-06-19T03:42:16.065Z,145.84
2023-06-19T03:43:06.150Z,148.74
2023-06-19T03:43:56.149Z,153.67
2023-06-19T03:44:46.271Z,143.67
2023-06-19T03:45:36.216Z,150.08
2023-06-19T03:46:26.347Z,153.61
2023-06-19T03:47:16.303Z,153.60
2023-06-19T03:48:06.542Z,144.26
2023-06-19T03:48:56.432Z,150.66
2023-06-19T03:49:46.622Z,154.47
2023-06-19T03:50:36.950Z,147.53
2023-06-19T03:51:26.659Z,151.09
2023-06-19T03:52:16.766Z,151.29
2023-06-19T03:53:06.738Z,152.23
2023-06-19T03:53:56.775Z,154.22
2023-06-19T03:54:46.860Z,144.14
2023-06-19T03:55:36.897Z,152.29
2023-06-19T03:56:27.009Z,154.85
2023-06-19T03:57:17.040Z,155.47
2023-06-19T03:58:07.210Z,150.03
2023-06-19T03:58:57.188Z,146.66
2023-06-19T03:59:47.300Z,150.97
2023-06-19T04:00:37.250Z,147.69
2023-06-19T04:01:27.457Z,150.09
2023-06-19T04:02:17.357Z,152.51
2023-06-19T04:03:07.658Z,154.39
2023-06-19T04:03:57.492Z,149.30
2023-06-19T04:04:47.537Z,144.02
2023-06-19T04:05:37.563Z,143.13
2023-06-19T04:06:27.687Z,149.19
2023-06-19T04:07:17.678Z,157.50
2023-06-19T04:08:07.790Z,147.46
2023-06-19T04:08:57.757Z,149.39
2023-06-19T04:09:47.883Z,145.50
2023-06-19T04:10:37.867Z,154.12
2023-06-19T04:11:28.026Z,152.27
2023-06-19T04:12:18.019Z,152.87
2023-06-19T04:13:08.251Z,151.82
2023-06-19T04:13:58.153Z,148.48
2023-06-19T04:14:48.260Z,152.06
2023-06-19T04:15:38.262Z,148.49
2023-06-19T04:16:28.393Z,149.00
2023-06-19T04:17:18.414Z,149.35
2023-06-19T04:18:08.599Z,150.74
2023-06-19T04:18:58.545Z,150.18
2023-06-19T04:19:48.673Z,151.35
2023-06-19T04:20:38.619Z,141.58
2023-06-19T04:21:28.714Z,150.32
2023-06-19T04:22:18.716Z,155.82
2023-06-19T04:23:08.892Z,151.01
2023-06-19T04:23:58.907Z,148.63
2023-06-19T04:24:49.018Z,149.74
2023-06-19T04:25:38.954Z,154.22
2023-06-19T04:26:29.057Z,152.06
2023-06-19T04:27:19.093Z,155.64
2023-06-19T04:28:09.240Z,150.18
2023-06-19T04:28:59.185Z,147.47
2023-06-19T04:29:49.357Z,148.83
2023-06-19T04:30:39.297Z,146.23
2023-06-19T04:31:29.412Z,156.11
2023-06-19T04:32:19.493Z,142.59
2023-06-19T04:33:09.761Z,150.98
2023-06-19T04:33:59.524Z,151.02
2023-06-19T04:34:49.698Z,152.75
2023-06-19T04:35:39.642Z,154.03
2023-06-19T04:36:29.745Z,151.63
2023-06-19T04:37:19.773Z,140.92
2023-06-19T04:38:09.926Z,152.42
2023-06-19T04:38:59.919Z,148.34
2023-06-19T04:39:50.082Z,154.91
2023-06-19T04:40:39.999Z,141.82
2023-06-19T04:41:30.086Z,146.96
2023-06-19T04:42:20.124Z,148.89
2023-06-19T04:43:10.264Z,155.52
2023-06-19T04:44:00.213Z,141.41
2023-06-19T04:44:50.382Z,151.68
2023-06-19T04:45:40.337Z,143.05
2023-06-19T04:46:30.493Z,145.10
2023-06-19T04:47:20.489Z,148.27
2023-06-19T04:48:10.677Z,149.14
2023-06-19T04:49:00.526Z,148.13
2023-06-19T04:49:50.628Z,147.08
2023-06-19T04:50:40.646Z,145.08
2023-06-19T04:51:30.789Z,148.19
2023-06-19T04:52:20.749Z,150.44
2023-06-19T04:53:10.848Z,146.03
2023-06-19T04:54:00.872Z,150.12
2023-06-19T04:54:50.973Z,153.20
2023-06-19T04:55:41.125Z,152.93
2023-06-19T04:56:31.112Z,142.42
2023-06-19T04:57:21.102Z,145.53
2023-06-19T04:58:11.294Z,139.81
2023-06-19T04:59:01.243Z,147.47
2023-06-19T04:59:51.412Z,151.86
2023-06-19T05:00:41.448Z,147.53
2023-06-19T05:01:31.622Z,146.88
2023-06-19T05:02:21.559Z,152.20
2023-06-19T05:03:11.676Z,145.56
2023-06-19T05:04:01.737Z,143.86
2023-06-19T05:04:51.799Z,144.15
2023-06-19T05:05:41.763Z,144.32
2023-06-19T05:06:31.907Z,144.21
2023-06-19T05:07:21.882Z,139.23
2023-06-19T05:08:11.986Z,146.36
2023-06-19T05:09:02.106Z,148.32
2023-06-19T05:09:52.201Z,153.29
2023-06-19T05:10:44.333Z,146.97
2023-06-19T05:11:32.379Z,142.77
2023-06-19T05:12:22.336Z,147.35
2023-06-19T05:13:12.534Z,146.99
2023-06-19T05:14:02.468Z,146.27
2023-06-19T05:14:52.562Z,149.48
2023-06-19T05:15:42.615Z,159.45
2023-06-19T05:16:35.151Z,148.82
2023-06-19T05:17:22.954Z,150.00
2023-06-19T05:18:13.022Z,150.31
2023-06-19T05:19:02.954Z,147.34
2023-06-19T05:19:53.094Z,149.91
2023-06-19T05:20:43.088Z,146.42
2023-06-19T05:21:33.249Z,139.33
2023-06-19T05:22:23.402Z,147.87
2023-06-19T05:23:13.536Z,155.66
2023-06-19T05:24:03.547Z,143.17
2023-06-19T05:24:53.641Z,139.76
2023-06-19T05:25:43.635Z,141.23
2023-06-19T05:26:33.792Z,142.37
2023-06-19T05:27:23.756Z,152.36
2023-06-19T05:28:13.874Z,148.76
2023-06-19T05:29:03.899Z,145.94
2023-06-19T05:29:53.996Z,150.61
2023-06-19T05:30:44.019Z,143.70
2023-06-19T05:31:34.136Z,148.36
2023-06-19T05:32:24.190Z,150.23
2023-06-19T05:33:14.313Z,146.60
2023-06-19T05:34:04.260Z,145.49
2023-06-19T05:34:54.360Z,145.62
2023-06-19T05:35:44.390Z,151.42
2023-06-19T05:36:34.487Z,143.56
2023-06-19T05:37:24.510Z,152.38
2023-06-19T05:38:14.970Z,150.79
2023-06-19T05:39:04.911Z,147.79
2023-06-19T05:39:54.981Z,151.33
2023-06-19T05:40:45.018Z,142.63
2023-06-19T05:41:35.130Z,150.53
2023-06-19T05:42:25.123Z,150.63
2023-06-19T05:43:15.233Z,151.43
2023-06-19T05:44:05.200Z,138.75
2023-06-19T05:44:55.427Z,144.27
2023-06-19T05:45:45.412Z,147.71
2023-06-19T05:46:35.473Z,152.65
2023-06-19T05:47:25.497Z,146.55
2023-06-19T05:48:15.600Z,139.29
2023-06-19T05:49:05.558Z,135.87
2023-06-19T05:49:55.670Z,149.86
2023-06-19T05:50:45.726Z,139.03
2023-06-19T05:51:35.817Z,140.55
2023-06-19T05:52:25.808Z,142.76
2023-06-19T05:53:16.101Z,145.26
2023-06-19T05:54:05.917Z,146.84
2023-06-19T05:54:56.044Z,147.19
2023-06-19T05:55:45.981Z,138.82
2023-06-19T05:56:36.062Z,142.98
2023-06-19T05:57:26.059Z,142.44
2023-06-19T05:58:16.331Z,143.58
2023-06-19T05:59:06.304Z,149.31
2023-06-19T05:59:56.454Z,151.81
2023-06-19T06:00:46.446Z,156.58
2023-06-19T06:01:36.546Z,144.41
2023-06-19T06:02:26.518Z,152.38
2023-06-19T06:03:16.581Z,143.67
2023-06-19T06:04:06.613Z,147.40
2023-06-19T06:04:56.822Z,143.79
2023-06-19T06:05:46.731Z,149.66
2023-06-19T06:06:36.848Z,140.34
2023-06-19T06:07:26.825Z,143.28
2023-06-19T06:08:16.925Z,143.39
2023-06-19T06:09:06.965Z,143.46
2023-06-19T06:09:57.043Z,144.40
2023-06-19T06:10:49.948Z,145.04
2023-06-19T06:11:37.189Z,143.65
2023-06-19T06:12:27.186Z,143.53
2023-06-19T06:13:17.262Z,146.94
2023-06-19T06:14:07.293Z,144.47
2023-06-19T06:14:57.408Z,148.95
2023-06-19T06:15:47.403Z,145.21
2023-06-19T06:16:37.607Z,143.56
2023-06-19T06:17:27.666Z,148.48
2023-06-19T06:18:17.810Z,146.88
2023-06-19T06:19:07.817Z,152.03
2023-06-19T06:19:57.830Z,145.60
2023-06-19T06:20:47.865Z,147.58
2023-06-19T06:21:37.974Z,148.06
2023-06-19T06:22:28.082Z,151.06
2023-06-19T06:23:18.150Z,141.99
2023-06-19T06:24:08.187Z,147.29
2023-06-19T06:24:58.270Z,138.36
2023-06-19T06:25:48.276Z,142.05
2023-06-19T06:26:38.325Z,153.49
2023-06-19T06:27:28.353Z,137.38
2023-06-19T06:28:18.497Z,147.85
2023-06-19T06:29:08.489Z,158.70
2023-06-19T06:29:58.617Z,147.00
2023-06-19T06:30:48.682Z,155.74
2023-06-19T06:31:38.769Z,148.28
2023-06-19T06:32:28.806Z,152.62
2023-06-19T06:33:18.938Z,148.57
2023-06-19T06:34:08.951Z,151.53
2023-06-19T06:34:59.054Z,150.03
2023-06-19T06:35:49.040Z,143.34
2023-06-19T06:36:46.503Z,153.49
2023-06-19T06:37:30.163Z,153.54
2023-06-19T06:38:19.319Z,150.52
2023-06-19T06:39:09.236Z,150.36
2023-06-19T06:39:59.406Z,146.11
2023-06-19T06:40:49.362Z,146.44
2023-06-19T06:41:39.450Z,138.68
2023-06-19T06:42:29.433Z,150.79
2023-06-19T06:43:19.825Z,148.77
2023-06-19T06:44:09.815Z,146.00
2023-06-19T06:44:59.947Z,145.03
2023-06-19T06:45:49.958Z,143.44
2023-06-19T06:46:40.304Z,148.35
2023-06-19T06:47:30.103Z,152.45
2023-06-19T06:48:20.180Z,151.06
2023-06-19T06:49:10.164Z,149.72
2023-06-19T06:50:00.340Z,147.62
2023-06-19T06:50:50.239Z,142.87
2023-06-19T06:51:40.345Z,149.68
2023-06-19T06:52:30.368Z,155.84
2023-06-19T06:53:20.512Z,144.76
2023-06-19T06:54:10.456Z,141.55
2023-06-19T06:55:00.529Z,151.16
2023-06-19T06:55:50.564Z,145.41
2023-06-19T06:56:40.786Z,151.51
2023-06-19T06:57:30.774Z,145.26
2023-06-19T06:58:20.867Z,148.12
2023-06-19T06:59:10.845Z,150.27
2023-06-19T07:00:00.982Z,146.39
2023-06-19T07:00:50.950Z,147.17
2023-06-19T07:01:41.018Z,145.32
2023-06-19T07:02:31.153Z,151.12
2023-06-19T07:03:21.303Z,146.44
2023-06-19T07:04:11.190Z,146.27
2023-06-19T07:05:01.323Z,155.99
2023-06-19T07:05:51.266Z,156.13
2023-06-19T07:06:41.381Z,145.14
2023-06-19T07:07:31.404Z,150.38
2023-06-19T07:08:21.554Z,154.89
2023-06-19T07:09:11.501Z,146.54
2023-06-19T07:10:01.567Z,160.40
2023-06-19T07:10:51.593Z,145.41
2023-06-19T07:11:41.730Z,149.57
2023-06-19T07:12:31.693Z,146.07
2023-06-19T07:13:21.804Z,146.11
2023-06-19T07:14:11.823Z,146.42
2023-06-19T07:15:01.913Z,140.28
2023-06-19T07:15:51.923Z,146.41
2023-06-19T07:16:42.092Z,151.37
2023-06-19T07:17:32.104Z,151.52
2023-06-19T07:18:22.260Z,147.95
2023-06-19T07:19:12.222Z,156.69
2023-06-19T07:20:02.656Z,152.90
2023-06-19T07:20:52.603Z,162.06
2023-06-19T07:21:42.706Z,152.26
2023-06-19T07:22:32.735Z,152.66
2023-06-19T07:23:22.884Z,153.42
2023-06-19T07:24:12.844Z,148.89
2023-06-19T07:25:02.911Z,154.01
2023-06-19T07:25:52.930Z,148.81
2023-06-19T07:26:43.083Z,149.42
2023-06-19T07:27:33.051Z,155.12
2023-06-19T07:28:23.228Z,140.84
2023-06-19T07:29:13.171Z,150.33
2023-06-19T07:30:03.342Z,144.62
2023-06-19T07:30:53.298Z,151.81
2023-06-19T07:31:43.392Z,150.16
2023-06-19T07:32:33.450Z,151.95
2023-06-19T07:33:23.578Z,147.64
2023-06-19T07:34:13.901Z,150.84
2023-06-19T07:35:03.591Z,153.58
2023-06-19T07:35:53.612Z,149.18
2023-06-19T07:36:43.735Z,156.30
2023-06-19T07:37:35.828Z,151.22
2023-06-19T07:38:23.815Z,150.27
2023-06-19T07:39:13.839Z,150.46
2023-06-19T07:40:03.932Z,150.27
2023-06-19T07:40:53.952Z,152.38
2023-06-19T07:41:44.077Z,142.83
2023-06-19T07:42:34.052Z,147.43
2023-06-19T07:43:24.275Z,143.31
2023-06-19T07:44:14.226Z,145.83
2023-06-19T07:45:04.373Z,155.45
2023-06-19T07:45:54.344Z,143.33
2023-06-19T07:46:44.442Z,153.31
2023-06-19T07:47:34.430Z,159.92
2023-06-19T07:48:24.625Z,138.89
2023-06-19T07:49:14.558Z,153.43
2023-06-19T07:50:04.733Z,146.32
2023-06-19T07:50:54.656Z,151.61
2023-06-19T07:51:44.762Z,146.08
2023-06-19T07:52:34.794Z,142.94
2023-06-19T07:53:24.941Z,147.12
2023-06-19T07:54:14.892Z,141.69
2023-06-19T07:55:05.062Z,142.83
2023-06-19T07:55:54.998Z,141.81
2023-06-19T07:56:45.115Z,143.97
2023-06-19T07:57:35.143Z,138.14
2023-06-19T07:58:25.287Z,146.88
2023-06-19T07:59:15.512Z,145.92
2023-06-19T08:00:05.615Z,142.02
2023-06-19T08:00:55.652Z,137.55
2023-06-19T08:01:45.757Z,147.37
2023-06-19T08:02:35.818Z,140.96
2023-06-19T08:03:25.993Z,141.88
2023-06-19T08:04:15.941Z,149.48
2023-06-19T08:05:05.964Z,151.62
2023-06-19T08:05:56.096Z,146.99
2023-06-19T08:06:46.213Z,147.07
2023-06-19T08:07:36.145Z,140.39
2023-06-19T08:08:26.289Z,140.37
2023-06-19T08:09:16.280Z,142.33
2023-06-19T08:10:13.193Z,149.10
2023-06-19T08:10:57.481Z,142.52
2023-06-19T08:11:46.565Z,138.33
2023-06-19T08:12:36.555Z,141.26
2023-06-19T08:13:26.722Z,147.67
2023-06-19T08:14:16.655Z,140.36
2023-06-19T08:15:06.736Z,136.40
2023-06-19T08:15:56.765Z,136.67
2023-06-19T08:16:47.144Z,142.27
2023-06-19T08:17:37.140Z,139.19
2023-06-19T08:18:27.168Z,139.70
2023-06-19T08:19:17.196Z,139.82
2023-06-19T08:20:07.295Z,139.94
2023-06-19T08:20:57.304Z,137.90
2023-06-19T08:21:47.473Z,138.36
2023-06-19T08:22:37.415Z,141.38
2023-06-19T08:23:27.508Z,148.77
2023-06-19T08:24:17.555Z,145.51
2023-06-19T08:25:07.639Z,149.92
2023-06-19T08:25:57.656Z,145.97
2023-06-19T08:26:47.779Z,150.41
2023-06-19T08:27:37.778Z,155.22
2023-06-19T08:28:27.958Z,138.71
2023-06-19T08:29:17.911Z,147.79
2023-06-19T08:30:08.088Z,141.52
2023-06-19T08:30:58.009Z,148.42
2023-06-19T08:31:48.115Z,150.93
2023-06-19T08:32:38.576Z,146.48
2023-06-19T08:33:28.504Z,144.91
2023-06-19T08:34:18.461Z,137.57
2023-06-19T08:35:08.622Z,151.12
2023-06-19T08:35:58.565Z,140.54
2023-06-19T08:36:48.666Z,141.64
2023-06-19T08:37:38.733Z,148.16
2023-06-19T08:38:28.844Z,139.19
2023-06-19T08:39:18.957Z,137.00
2023-06-19T08:40:09.068Z,144.33
2023-06-19T08:40:59.105Z,137.32
2023-06-19T08:41:49.217Z,142.38
2023-06-19T08:42:39.247Z,143.71
2023-06-19T08:43:29.393Z,147.39
2023-06-19T08:44:19.366Z,142.01
2023-06-19T08:45:09.512Z,139.64
2023-06-19T08:45:59.525Z,140.97
2023-06-19T08:46:49.674Z,143.86
2023-06-19T08:47:39.687Z,141.98
2023-06-19T08:48:30.054Z,143.10
2023-06-19T08:49:19.989Z,144.94
2023-06-19T08:50:10.185Z,150.85
2023-06-19T08:51:00.107Z,143.65
2023-06-19T08:51:50.208Z,142.13
2023-06-19T08:52:40.241Z,134.76
2023-06-19T08:53:30.414Z,148.09
2023-06-19T08:54:20.392Z,139.71
2023-06-19T08:55:10.506Z,134.37
2023-06-19T08:56:00.468Z,138.25
2023-06-19T08:56:50.590Z,144.67
2023-06-19T08:57:40.702Z,147.45
2023-06-19T08:58:30.745Z,139.82
2023-06-19T08:59:20.679Z,137.26
2023-06-19T09:00:10.870Z,147.92
2023-06-19T09:01:00.801Z,147.65
2023-06-19T09:01:51.107Z,150.50
2023-06-19T09:02:41.213Z,137.24
2023-06-19T09:03:31.372Z,140.25
2023-06-19T09:04:21.263Z,138.17
2023-06-19T09:05:11.299Z,139.04
2023-06-19T09:06:01.374Z,141.27
2023-06-19T09:06:51.436Z,141.10
2023-06-19T09:07:41.450Z,138.00
2023-06-19T09:08:31.627Z,137.64
2023-06-19T09:09:21.646Z,136.73
2023-06-19T09:10:11.754Z,133.70
2023-06-19T09:11:01.736Z,139.84
2023-06-19T09:11:51.897Z,136.83
2023-06-19T09:12:41.878Z,136.27
2023-06-19T09:13:32.079Z,140.55
2023-06-19T09:14:22.019Z,135.34
2023-06-19T09:15:12.184Z,139.20
2023-06-19T09:16:02.133Z,135.27
2023-06-19T09:16:52.233Z,129.79
2023-06-19T09:17:42.300Z,137.41
2023-06-19T09:18:32.426Z,133.53
2023-06-19T09:19:22.360Z,140.22
2023-06-19T09:20:12.534Z,134.18
2023-06-19T09:21:02.525Z,136.57
2023-06-19T09:21:52.683Z,144.27
2023-06-19T09:22:42.625Z,138.65
2023-06-19T09:23:32.762Z,147.99
2023-06-19T09:24:22.789Z,135.53
2023-06-19T09:25:12.946Z,139.71
2023-06-19T09:26:02.880Z,138.84
2023-06-19T09:26:53.026Z,131.15
2023-06-19T09:27:43.009Z,134.99
2023-06-19T09:28:33.114Z,132.24
2023-06-19T09:29:23.133Z,139.77
2023-06-19T09:30:13.217Z,136.31
2023-06-19T09:31:03.259Z,142.72
2023-06-19T09:31:54.390Z,131.40
2023-06-19T09:32:43.384Z,134.26
2023-06-19T09:33:33.606Z,134.32
2023-06-19T09:34:23.485Z,143.82
2023-06-19T09:35:13.659Z,137.79
2023-06-19T09:36:03.616Z,138.05
2023-06-19T09:36:53.707Z,139.44
2023-06-19T09:37:43.738Z,132.78
2023-06-19T09:38:33.889Z,132.60
2023-06-19T09:39:23.882Z,134.38
2023-06-19T09:40:14.003Z,136.63
2023-06-19T09:41:03.999Z,140.73
2023-06-19T09:41:54.072Z,135.68
2023-06-19T09:42:44.061Z,136.15
2023-06-19T09:43:34.133Z,131.29
2023-06-19T09:44:24.167Z,136.24
2023-06-19T09:45:14.250Z,137.17
2023-06-19T09:46:04.256Z,126.58
2023-06-19T09:46:54.413Z,127.30
2023-06-19T09:47:45.769Z,128.14
2023-06-19T09:48:34.469Z,128.26
2023-06-19T09:49:24.577Z,129.52
2023-06-19T09:50:14.693Z,129.42
2023-06-19T09:51:04.712Z,129.03
2023-06-19T09:51:55.144Z,129.68
2023-06-19T09:52:45.090Z,128.38
2023-06-19T09:53:35.216Z,146.19
2023-06-19T09:54:25.218Z,127.86
2023-06-19T09:55:15.337Z,135.74
2023-06-19T09:56:05.329Z,132.11
2023-06-19T09:56:55.519Z,131.56
2023-06-19T09:57:45.427Z,136.27
2023-06-19T09:58:35.569Z,127.77
2023-06-19T09:59:25.565Z,129.56
2023-06-19T10:00:15.682Z,140.91
2023-06-19T10:01:05.992Z,123.05
2023-06-19T10:01:56.170Z,129.57
2023-06-19T10:02:46.233Z,126.17
2023-06-19T10:03:36.256Z,137.71
2023-06-19T10:04:26.166Z,129.52
2023-06-19T10:05:16.344Z,132.95
2023-06-19T10:06:06.276Z,141.59
2023-06-19T10:06:56.379Z,132.39
2023-06-19T10:07:46.544Z,133.48
2023-06-19T10:08:36.665Z,128.71
2023-06-19T10:09:26.650Z,137.41
2023-06-19T10:10:16.776Z,133.33
2023-06-19T10:11:06.798Z,133.17
2023-06-19T10:11:56.925Z,129.61
2023-06-19T10:12:46.899Z,135.56
2023-06-19T10:13:37.001Z,126.98
2023-06-19T10:14:27.078Z,131.86
2023-06-19T10:15:17.237Z,136.83
2023-06-19T10:16:07.216Z,123.05
2023-06-19T10:16:57.408Z,138.02
2023-06-19T10:17:47.404Z,137.03
2023-06-19T10:18:37.552Z,133.50
2023-06-19T10:19:27.494Z,130.68
2023-06-19T10:20:17.672Z,134.52
2023-06-19T10:21:07.658Z,121.14
2023-06-19T10:21:59.389Z,138.96
2023-06-19T10:22:47.759Z,136.05
2023-06-19T10:23:38.278Z,135.02
2023-06-19T10:24:28.191Z,136.25